Time;durP1;ratioP1;P1;durP2;ratioP2;P2;SDS_P1;SDS_P2;PMS_P1;PMS_P2;Temp;Humidity;BMP_temperature;BMP_pressure;BME280_temperature;BME280_humidity;BME280_pressure;Samples;Min_cycle;Max_cycle;Signal;HPM_P1;HPM_P2
2023/09/15 00:04:12;;;;;;;7.50;3.28;;;;;;;11.84;72.51;100982.53;10477974;28;20078;-75
2023/09/15 00:09:18;;;;;;;4.32;2.75;;;;;;;11.81;72.37;100990.84;10466975;28;20052;-75
2023/09/15 00:14:23;;;;;;;7.68;3.15;;;;;;;11.71;72.56;100974.56;10482943;28;20515;-75
2023/09/15 00:19:26;;;;;;;4.35;3.35;;;;;;;11.71;72.92;100979.94;10484030;28;20053;-74
2023/09/15 00:24:29;;;;;;;3.38;2.88;;;;;;;11.76;72.77;100978.72;10483448;28;20463;-75
2023/09/15 00:29:33;;;;;;;7.00;3.35;;;;;;;11.69;72.87;100986.44;10485219;28;20052;-75
2023/09/15 00:34:36;;;;;;;6.65;3.28;;;;;;;11.70;72.95;100985.44;10473113;28;20656;-75
2023/09/15 00:39:39;;;;;;;5.43;3.55;;;;;;;11.72;72.67;100984.34;10491464;28;20075;-74
2023/09/15 00:44:44;;;;;;;4.75;2.85;;;;;;;11.67;72.91;100985.69;10466080;28;21227;-74
2023/09/15 00:49:46;;;;;;;4.25;2.67;;;;;;;11.63;72.71;100985.06;10465804;28;21141;-75
2023/09/15 00:54:49;;;;;;;3.15;2.85;;;;;;;11.62;73.01;100982.47;10465473;28;20101;-75
2023/09/15 00:59:54;;;;;;;6.85;2.78;;;;;;;11.61;72.75;100975.38;10482884;28;20548;-74
2023/09/15 01:04:57;;;;;;;3.28;2.38;;;;;;;11.61;72.56;100972.69;10481576;28;20055;-75
2023/09/15 01:10:00;;;;;;;6.07;2.53;;;;;;;11.64;72.30;100967.06;10455204;28;20591;-75
2023/09/15 01:15:06;;;;;;;5.95;3.28;;;;;;;11.60;72.36;100958.38;10455310;28;20041;-75
2023/09/15 01:20:13;;;;;;;7.45;2.88;;;;;;;11.53;72.70;100967.03;10479399;28;20052;-75
2023/09/15 01:25:56;;;;;;;8.25;3.15;;;;;;;11.39;72.87;100965.41;10454384;28;20052;-74
2023/09/15 01:31:02;;;;;;;7.45;3.17;;;;;;;11.38;72.90;100956.47;10431348;28;20040;-75
2023/09/15 01:36:05;;;;;;;6.72;2.80;;;;;;;11.40;72.70;100957.19;10441090;28;20052;-75
2023/09/15 01:41:08;;;;;;;6.30;3.13;;;;;;;11.31;72.52;100947.13;10434333;28;20044;-74
2023/09/15 01:46:13;;;;;;;8.05;3.50;;;;;;;11.09;72.77;100938.94;10438778;28;20051;-75
2023/09/15 01:51:17;;;;;;;4.88;3.00;;;;;;;10.83;73.75;100942.56;10463192;28;20052;-74
2023/09/15 01:56:23;;;;;;;9.85;4.28;;;;;;;10.87;74.15;100939.66;10466910;28;20051;-74
2023/09/15 02:01:27;;;;;;;6.30;3.30;;;;;;;10.88;74.19;100936.00;10464907;28;20060;-74
2023/09/15 02:06:30;;;;;;;6.35;3.20;;;;;;;10.77;74.31;100942.16;10446270;28;21700;-74
2023/09/15 02:11:33;;;;;;;10.05;3.60;;;;;;;10.69;75.06;100939.16;10434760;28;20052;-74
2023/09/15 02:16:37;;;;;;;6.28;3.20;;;;;;;10.72;74.75;100936.25;10454812;28;20049;-74
2023/09/15 02:21:40;;;;;;;4.22;2.92;;;;;;;10.71;74.94;100937.22;10437169;28;21211;-74
2023/09/15 02:26:43;;;;;;;6.22;3.40;;;;;;;10.86;74.86;100935.25;10436486;28;20134;-74
2023/09/15 02:31:47;;;;;;;6.00;3.38;;;;;;;10.96;74.70;100939.81;10438997;28;20049;-73
2023/09/15 02:36:51;;;;;;;3.17;2.60;;;;;;;11.15;73.96;100946.56;10439409;28;20063;-74
2023/09/15 02:41:54;;;;;;;5.55;3.03;;;;;;;11.08;74.06;100943.47;10440207;28;20059;-74
2023/09/15 02:46:58;;;;;;;4.80;2.90;;;;;;;11.07;74.05;100933.66;10433652;28;20202;-74
2023/09/15 02:52:02;;;;;;;6.68;3.10;;;;;;;11.18;74.23;100925.69;10465122;28;20055;-74
2023/09/15 02:57:05;;;;;;;3.42;2.67;;;;;;;11.19;74.45;100924.72;10454769;28;20060;-74
2023/09/15 03:02:12;;;;;;;4.47;2.50;;;;;;;11.21;74.29;100922.75;10457859;28;20051;-74
2023/09/15 03:07:17;;;;;;;6.40;2.95;;;;;;;11.25;74.58;100921.56;10455874;28;20116;-74
2023/09/15 03:12:20;;;;;;;7.43;3.45;;;;;;;11.31;74.61;100917.56;10453535;28;20174;-74
2023/09/15 03:17:25;;;;;;;4.68;2.97;;;;;;;11.20;74.72;100910.28;10463125;28;20121;-74
2023/09/15 03:22:28;;;;;;;10.20;3.08;;;;;;;11.26;75.20;100908.97;10454963;28;20055;-74
2023/09/15 03:27:31;;;;;;;5.00;2.78;;;;;;;11.44;75.09;100914.78;10461997;28;20041;-73
2023/09/15 03:32:36;;;;;;;6.43;3.25;;;;;;;11.32;74.93;100904.94;10487003;28;20071;-73
2023/09/15 03:37:39;;;;;;;6.20;2.88;;;;;;;11.39;75.08;100908.91;10483221;28;20044;-73
2023/09/15 03:42:42;;;;;;;6.47;3.38;;;;;;;11.36;74.85;100895.69;10460945;28;20052;-75
2023/09/15 03:47:46;;;;;;;5.72;3.20;;;;;;;11.26;75.25;100895.53;10459148;28;20071;-74
2023/09/15 03:52:49;;;;;;;3.85;2.92;;;;;;;11.16;75.75;100889.13;10470888;28;21309;-74
2023/09/15 03:57:52;;;;;;;6.03;3.53;;;;;;;11.23;76.07;100880.47;10487167;28;20079;-74
2023/09/15 04:02:56;;;;;;;9.18;3.17;;;;;;;11.31;75.98;100885.28;10487215;28;20251;-74
2023/09/15 04:07:59;;;;;;;8.52;3.15;;;;;;;11.37;75.88;100886.63;10483679;28;20176;-74
2023/09/15 04:13:03;;;;;;;4.15;2.90;;;;;;;11.37;75.38;100881.25;10464592;28;20169;-75
2023/09/15 04:18:09;;;;;;;5.18;2.78;;;;;;;11.37;74.90;100879.41;10464373;28;20041;-75
2023/09/15 04:23:12;;;;;;;6.85;3.72;;;;;;;11.33;75.04;100880.66;10462697;28;20473;-75
2023/09/15 04:28:15;;;;;;;7.28;3.00;;;;;;;11.32;75.09;100884.28;10458731;28;20051;-74
2023/09/15 04:33:23;;;;;;;7.40;3.42;;;;;;;11.25;75.21;100875.00;10457287;28;20048;-74
2023/09/15 04:38:26;;;;;;;9.48;3.40;;;;;;;11.24;75.39;100881.31;10457073;28;20044;-74
2023/09/15 04:43:30;;;;;;;6.07;3.70;;;;;;;11.19;75.66;100873.63;10482642;28;20534;-74
2023/09/15 04:48:34;;;;;;;9.70;3.83;;;;;;;11.15;75.66;100871.28;10470530;28;20049;-74
2023/09/15 04:53:38;;;;;;;16.27;4.03;;;;;;;11.13;75.82;100873.22;10461231;28;20346;-74
2023/09/15 04:58:44;;;;;;;7.40;3.60;;;;;;;11.15;75.64;100877.50;10460099;28;20434;-74
2023/09/15 05:03:49;;;;;;;6.85;3.58;;;;;;;11.18;75.77;100882.66;10458606;28;20040;-74
2023/09/15 05:08:52;;;;;;;7.90;3.58;;;;;;;11.19;75.75;100879.00;10465877;28;20055;-74
2023/09/15 05:13:57;;;;;;;7.75;3.40;;;;;;;11.21;75.53;100885.09;10464674;28;20592;-74
2023/09/15 05:19:02;;;;;;;7.85;3.40;;;;;;;11.26;75.48;100891.00;10466354;28;20044;-74
2023/09/15 05:24:06;;;;;;;7.97;3.17;;;;;;;11.34;75.44;100893.09;10467131;28;20053;-74
2023/09/15 05:29:09;;;;;;;10.45;3.35;;;;;;;11.36;75.13;100884.94;10468368;28;20051;-74
2023/09/15 05:34:14;;;;;;;7.25;3.22;;;;;;;11.36;75.10;100893.84;10489560;28;20359;-74
2023/09/15 05:39:17;;;;;;;8.27;3.80;;;;;;;11.39;75.06;100890.94;10466789;28;21581;-73
2023/09/15 05:44:20;;;;;;;6.50;3.22;;;;;;;11.46;74.78;100881.41;10481031;28;20036;-74
2023/09/15 05:49:24;;;;;;;5.45;3.67;;;;;;;11.52;74.90;100887.28;10481204;28;20124;-74
2023/09/15 05:54:29;;;;;;;11.80;3.65;;;;;;;11.62;74.94;100890.97;10485049;28;20241;-74
2023/09/15 05:59:32;;;;;;;7.65;4.45;;;;;;;11.76;75.11;100888.06;10485063;28;20110;-74
2023/09/15 06:04:36;;;;;;;8.93;3.72;;;;;;;12.02;74.99;100887.88;10464063;28;20654;-74
2023/09/15 06:09:39;;;;;;;5.53;3.38;;;;;;;12.03;74.68;100887.72;10476822;28;20043;-74
2023/09/15 06:14:42;;;;;;;11.48;4.25;;;;;;;12.00;75.00;100893.38;10472636;28;20048;-74
2023/09/15 06:19:46;;;;;;;7.75;3.90;;;;;;;12.18;74.95;100891.06;10475595;28;20063;-74
2023/09/15 06:24:49;;;;;;;7.40;3.80;;;;;;;12.40;74.74;100884.84;10468747;28;20369;-74
2023/09/15 06:29:52;;;;;;;6.35;3.90;;;;;;;12.69;74.11;100882.44;10469937;28;20703;-74
2023/09/15 06:34:57;;;;;;;10.13;4.20;;;;;;;12.85;73.01;100882.03;10472561;28;20048;-74
2023/09/15 06:40:00;;;;;;;5.18;4.00;;;;;;;13.11;72.35;100884.41;10472852;28;20055;-74
2023/09/15 06:45:03;;;;;;;8.93;4.10;;;;;;;13.43;71.61;100882.56;10470323;28;20147;-74
2023/09/15 06:50:08;;;;;;;8.82;4.53;;;;;;;13.73;71.16;100875.50;10479043;28;20134;-74
2023/09/15 06:55:11;;;;;;;6.20;3.42;;;;;;;14.43;69.80;100881.16;10475814;28;20071;-74
2023/09/15 07:00:14;;;;;;;10.85;3.90;;;;;;;14.99;66.05;100877.81;10484516;28;20048;-74
2023/09/15 07:05:18;;;;;;;8.77;3.50;;;;;;;15.55;65.68;100881.69;10480748;28;20052;-74
2023/09/15 07:10:22;;;;;;;8.50;3.60;;;;;;;15.48;64.25;100878.72;10481341;28;20056;-74
2023/09/15 07:15:28;;;;;;;5.07;3.53;;;;;;;15.52;64.68;100869.28;10485962;28;20048;-74
2023/09/15 07:20:33;;;;;;;7.60;2.40;;;;;;;15.65;64.25;100874.41;10485173;28;20056;-73
2023/09/15 07:25:35;;;;;;;6.60;3.55;;;;;;;15.84;62.68;100873.50;10490807;28;20044;-74
2023/09/15 07:30:38;;;;;;;8.60;3.92;;;;;;;16.24;63.33;100869.66;10503002;28;20048;-74
2023/09/15 07:35:43;;;;;;;9.05;4.15;;;;;;;16.13;62.03;100868.84;10506309;28;20063;-74
2023/09/15 07:40:45;;;;;;;6.20;3.90;;;;;;;16.02;62.53;100869.03;10487292;28;20055;-75
2023/09/15 07:45:50;;;;;;;7.75;4.30;;;;;;;16.23;62.74;100867.94;10481210;28;20036;-74
2023/09/15 07:50:54;;;;;;;7.45;4.25;;;;;;;16.09;61.99;100861.16;10478611;28;20048;-75
2023/09/15 07:55:57;;;;;;;6.50;3.97;;;;;;;16.80;61.59;100853.22;10471869;28;20052;-75
2023/09/15 08:01:00;;;;;;;6.03;4.22;;;;;;;16.71;61.26;100858.72;10472453;28;20044;-74
2023/09/15 08:06:05;;;;;;;6.45;4.13;;;;;;;17.59;60.11;100854.28;10468223;28;20046;-74
2023/09/15 08:11:08;;;;;;;9.10;4.32;;;;;;;17.58;58.78;100857.16;10477551;28;20136;-74
2023/09/15 08:16:11;;;;;;;7.47;3.53;;;;;;;17.23;59.96;100865.19;10477745;28;20507;-74
2023/09/15 08:21:15;;;;;;;7.70;3.78;;;;;;;17.58;60.42;100855.31;10474545;28;20591;-74
2023/09/15 08:26:18;;;;;;;5.95;4.13;;;;;;;18.21;59.49;100846.03;10485110;28;20091;-74
2023/09/15 08:31:21;;;;;;;7.05;4.10;;;;;;;18.49;57.75;100845.78;10491147;28;20093;-74
2023/09/15 08:36:26;;;;;;;5.72;3.78;;;;;;;18.70;57.92;100843.44;10484813;28;21105;-74
2023/09/15 08:41:32;;;;;;;5.43;3.58;;;;;;;18.70;57.06;100835.28;10486246;28;20119;-74
2023/09/15 08:46:36;;;;;;;5.70;3.70;;;;;;;18.72;56.21;100835.97;10478803;28;20125;-76
2023/09/15 08:51:42;;;;;;;5.32;3.60;;;;;;;19.02;56.05;100836.38;10484065;28;20056;-76
2023/09/15 08:56:47;;;;;;;6.10;4.00;;;;;;;19.27;54.78;100834.53;10482190;28;20143;-76
2023/09/15 09:01:49;;;;;;;5.40;3.42;;;;;;;19.78;54.46;100832.47;10487742;28;20534;-77
2023/09/15 09:06:54;;;;;;;6.60;4.07;;;;;;;19.84;53.06;100833.63;10484972;28;20136;-76
2023/09/15 09:11:57;;;;;;;4.30;3.80;;;;;;;19.49;54.20;100818.50;10483464;28;20503;-77
2023/09/15 09:17:02;;;;;;;6.43;3.53;;;;;;;20.03;53.84;100816.88;10483271;28;20055;-76
2023/09/15 09:22:07;;;;;;;9.88;3.92;;;;;;;20.38;53.36;100809.25;10480055;28;20093;-76
2023/09/15 09:27:11;;;;;;;5.22;4.05;;;;;;;20.50;52.47;100812.44;10487185;28;20052;-76
2023/09/15 09:32:15;;;;;;;4.95;3.55;;;;;;;20.67;52.54;100810.44;10496935;28;20044;-74
2023/09/15 09:37:25;;;;;;;6.88;3.70;;;;;;;21.09;51.70;100803.69;10489507;28;20245;-77
2023/09/15 09:42:28;;;;;;;7.65;4.13;;;;;;;21.37;50.93;100802.06;10482673;28;21556;-77
2023/09/15 09:47:31;;;;;;;5.22;3.60;;;;;;;21.59;50.47;100783.91;10479952;28;20070;-77
2023/09/15 09:52:36;;;;;;;8.38;4.45;;;;;;;21.76;50.51;100781.88;10476483;28;20044;-76
2023/09/15 09:57:39;;;;;;;7.22;3.85;;;;;;;21.40;50.00;100777.09;10487363;28;20055;-77
2023/09/15 10:02:42;;;;;;;5.28;3.60;;;;;;;21.85;49.93;100778.00;10483101;28;20037;-75
2023/09/15 10:07:47;;;;;;;6.35;5.22;;;;;;;22.13;48.73;100781.94;10490599;28;20163;-76
2023/09/15 10:12:50;;;;;;;4.65;4.20;;;;;;;21.92;49.52;100777.28;10490406;28;20055;-75
2023/09/15 10:17:54;;;;;;;4.47;3.80;;;;;;;22.11;50.83;100769.31;10491585;28;20055;-76
2023/09/15 10:22:59;;;;;;;8.95;4.55;;;;;;;22.57;49.66;100759.97;10489806;28;20048;-75
2023/09/15 10:28:02;;;;;;;4.78;4.05;;;;;;;23.58;48.12;100749.69;10489939;28;20040;-76
2023/09/15 10:33:06;;;;;;;5.75;4.13;;;;;;;24.02;46.88;100758.59;10493888;28;20040;-76
2023/09/15 10:38:11;;;;;;;6.95;4.10;;;;;;;23.84;46.92;100756.41;10488125;28;20256;-76
2023/09/15 10:43:14;;;;;;;4.80;3.85;;;;;;;23.43;48.16;100749.81;10474349;28;20605;-75
2023/09/15 10:48:18;;;;;;;5.88;3.70;;;;;;;24.08;47.02;100746.84;10475156;28;20058;-76
2023/09/15 10:53:25;;;;;;;4.55;3.22;;;;;;;24.82;46.40;100736.88;10478100;28;20083;-76
2023/09/15 10:58:28;;;;;;;6.05;3.90;;;;;;;25.53;44.54;100719.72;10483609;28;20392;-76
2023/09/15 11:03:33;;;;;;;4.10;3.70;;;;;;;25.51;43.83;100719.13;10478878;28;20068;-77
2023/09/15 11:08:38;;;;;;;5.55;3.25;;;;;;;25.83;43.69;100720.94;10480759;28;20041;-76
2023/09/15 11:13:42;;;;;;;5.22;3.88;;;;;;;26.57;42.85;100715.94;10471266;28;20515;-76
2023/09/15 11:18:46;;;;;;;5.32;3.03;;;;;;;27.07;41.90;100710.50;10471271;28;20052;-76
2023/09/15 11:23:52;;;;;;;3.80;3.05;;;;;;;26.52;42.03;100711.09;10474624;28;20056;-76
2023/09/15 11:28:54;;;;;;;8.35;2.83;;;;;;;26.84;40.68;100699.22;10471537;28;20808;-76
2023/09/15 11:33:59;;;;;;;3.65;2.92;;;;;;;26.67;41.47;100702.50;10488476;28;20133;-75
2023/09/15 11:39:07;;;;;;;4.15;3.35;;;;;;;27.26;41.18;100686.56;10477652;28;20044;-76
2023/09/15 11:44:10;;;;;;;3.20;2.78;;;;;;;28.28;39.99;100689.59;10476217;28;20153;-76
2023/09/15 11:49:15;;;;;;;5.15;3.10;;;;;;;27.74;40.12;100679.47;10480335;28;20246;-76
2023/09/15 11:54:20;;;;;;;4.32;2.75;;;;;;;27.93;39.94;100672.84;10478327;28;20055;-76
2023/09/15 11:59:24;;;;;;;6.35;2.70;;;;;;;28.19;39.33;100671.66;10479961;28;20062;-76
2023/09/15 12:04:28;;;;;;;3.92;2.53;;;;;;;27.47;39.24;100674.25;10481528;28;21316;-77
2023/09/15 12:09:33;;;;;;;3.67;2.92;;;;;;;26.72;41.65;100658.59;10481067;28;20126;-77
2023/09/15 12:14:37;;;;;;;3.53;3.10;;;;;;;26.31;41.95;100650.88;10492177;28;20048;-77
2023/09/15 12:19:40;;;;;;;2.60;2.40;;;;;;;25.06;43.50;100656.59;10489377;28;20502;-76
2023/09/15 12:24:44;;;;;;;6.53;3.10;;;;;;;25.57;42.25;100641.25;10488003;28;20048;-76
2023/09/15 12:29:48;;;;;;;5.47;3.95;;;;;;;26.91;41.24;100639.41;10495240;27;20272;-76
2023/09/15 12:34:51;;;;;;;9.65;4.03;;;;;;;24.74;44.16;100631.66;10484843;28;20499;-77
2023/09/15 12:39:55;;;;;;;4.25;2.67;;;;;;;25.28;42.64;100624.19;10487860;28;20102;-77
2023/09/15 12:44:58;;;;;;;2.60;2.40;;;;;;;26.65;40.78;100627.50;10487108;28;20059;-77
2023/09/15 12:50:02;;;;;;;6.53;2.70;;;;;;;26.91;40.46;100629.22;10480874;28;20060;-76
2023/09/15 12:55:07;;;;;;;2.63;2.42;;;;;;;27.82;39.64;100613.75;10476675;28;20055;-76
2023/09/15 13:00:11;;;;;;;2.58;2.20;;;;;;;28.27;38.85;100607.78;10474015;28;20551;-78
2023/09/15 13:05:14;;;;;;;2.97;2.40;;;;;;;28.36;38.03;100596.41;10478247;28;20563;-77
2023/09/15 13:10:18;;;;;;;3.05;2.50;;;;;;;27.45;39.09;100612.13;10482605;28;20048;-75
2023/09/15 13:15:21;;;;;;;5.85;2.38;;;;;;;27.77;37.94;100605.31;10485580;28;20044;-77
2023/09/15 13:20:24;;;;;;;2.10;1.90;;;;;;;27.12;38.32;100602.28;10476286;28;20055;-77
2023/09/15 13:25:29;;;;;;;3.25;2.20;;;;;;;27.52;37.45;100604.59;10477745;28;20099;-76
2023/09/15 13:30:33;;;;;;;3.25;1.90;;;;;;;27.94;37.53;100596.41;10484366;28;20050;-76
2023/09/15 13:35:36;;;;;;;2.42;2.22;;;;;;;28.41;35.77;100583.56;10487848;28;20067;-78
2023/09/15 13:40:40;;;;;;;3.50;2.25;;;;;;;29.60;35.40;100579.69;10490751;28;20055;-77
2023/09/15 13:45:50;;;;;;;2.88;2.50;;;;;;;29.97;35.53;100577.34;10483291;28;20060;-77
2023/09/15 13:50:54;;;;;;;3.08;2.22;;;;;;;28.92;36.28;100579.28;10496155;28;20133;-77
2023/09/15 13:55:58;;;;;;;2.65;1.88;;;;;;;28.34;35.77;100579.25;10492428;28;20043;-78
2023/09/15 14:01:02;;;;;;;3.15;2.45;;;;;;;28.24;36.28;100566.00;10491698;28;20059;-76
2023/09/15 14:06:05;;;;;;;2.55;2.35;;;;;;;27.93;38.17;100565.19;10483640;28;20135;-77
2023/09/15 14:11:10;;;;;;;2.30;1.90;;;;;;;27.68;38.01;100554.31;10478575;28;20149;-77
2023/09/15 14:16:13;;;;;;;3.33;1.92;;;;;;;26.91;38.83;100543.78;10486533;28;20608;-76
2023/09/15 14:21:17;;;;;;;4.45;2.25;;;;;;;27.73;38.46;100545.31;10482800;28;20044;-76
2023/09/15 14:26:21;;;;;;;2.55;2.35;;;;;;;27.71;37.84;100536.44;10483475;28;20044;-76
2023/09/15 14:31:24;;;;;;;4.43;2.47;;;;;;;27.23;37.94;100537.25;10486248;28;20044;-76
2023/09/15 14:36:27;;;;;;;3.10;2.28;;;;;;;27.77;38.86;100539.09;10470348;28;20051;-77
2023/09/15 14:41:32;;;;;;;2.83;1.95;;;;;;;26.86;38.76;100535.34;10476611;28;20051;-76
2023/09/15 14:46:36;;;;;;;4.50;2.40;;;;;;;26.84;38.27;100531.13;10479796;28;20051;-77
2023/09/15 14:51:39;;;;;;;2.72;2.50;;;;;;;26.46;37.60;100523.84;10474811;28;20723;-76
2023/09/15 14:56:43;;;;;;;2.85;2.20;;;;;;;26.49;38.56;100517.91;10469887;28;20556;-76
2023/09/15 15:01:46;;;;;;;4.45;2.47;;;;;;;26.26;40.10;100507.53;10484320;28;20590;-76
2023/09/15 15:06:49;;;;;;;2.45;2.25;;;;;;;26.21;41.06;100507.31;10484111;28;21173;-77
2023/09/15 15:11:54;;;;;;;4.55;2.88;;;;;;;26.14;40.43;100510.16;10488468;28;20056;-77
2023/09/15 15:16:57;;;;;;;2.78;2.50;;;;;;;26.08;40.74;100502.75;10488227;28;20051;-77
2023/09/15 15:22:00;;;;;;;3.03;2.47;;;;;;;25.40;42.27;100498.75;10483872;28;20051;-76
2023/09/15 15:27:05;;;;;;;2.90;2.70;;;;;;;25.91;41.22;100496.13;10482547;28;20050;-76
2023/09/15 15:32:08;;;;;;;3.38;3.00;;;;;;;25.59;41.76;100499.72;10492664;28;20044;-77
2023/09/15 15:37:11;;;;;;;5.25;2.85;;;;;;;25.82;41.24;100496.41;10489012;28;20060;-76
2023/09/15 15:42:15;;;;;;;3.88;2.78;;;;;;;25.29;41.69;100491.19;10485980;28;20051;-75
2023/09/15 15:47:18;;;;;;;4.15;3.10;;;;;;;24.55;42.88;100497.97;10489771;28;20090;-76
2023/09/15 15:52:22;;;;;;;3.03;2.70;;;;;;;24.59;42.96;100487.41;10492217;28;20054;-75
2023/09/15 15:57:26;;;;;;;4.32;2.80;;;;;;;24.31;43.72;100496.69;10490794;28;20612;-77
2023/09/15 16:02:29;;;;;;;3.17;2.40;;;;;;;24.31;44.12;100486.56;10482925;28;20418;-75
2023/09/15 16:07:32;;;;;;;5.78;2.83;;;;;;;24.46;44.25;100489.09;10489278;28;20052;-77
2023/09/15 16:12:37;;;;;;;4.25;2.92;;;;;;;23.84;45.14;100491.19;10483247;28;20048;-74
2023/09/15 16:17:40;;;;;;;4.65;2.75;;;;;;;22.98;47.13;100486.28;10488839;28;20044;-75
2023/09/15 16:22:45;;;;;;;3.30;2.95;;;;;;;22.64;48.24;100489.03;10501603;28;20108;-75
2023/09/15 16:27:50;;;;;;;4.18;3.58;;;;;;;23.17;47.00;100486.56;10483883;28;21733;-77
2023/09/15 16:32:52;;;;;;;3.55;2.92;;;;;;;23.25;46.77;100482.81;10493224;28;21199;-76
2023/09/15 16:37:55;;;;;;;4.45;2.92;;;;;;;22.87;47.58;100488.72;10491841;28;20040;-76
2023/09/15 16:43:00;;;;;;;5.57;2.90;;;;;;;23.33;47.25;100488.09;10490803;28;20044;-76
2023/09/15 16:48:03;;;;;;;5.53;3.00;;;;;;;23.31;47.56;100480.09;10489970;28;20399;-77
2023/09/15 16:53:06;;;;;;;4.80;3.08;;;;;;;22.84;48.98;100484.50;10488221;28;20514;-77
2023/09/15 16:58:10;;;;;;;3.20;2.90;;;;;;;22.30;50.29;100471.50;10488082;28;20046;-76
2023/09/15 17:03:13;;;;;;;3.25;2.97;;;;;;;21.92;51.07;100471.84;10492970;28;20055;-76
2023/09/15 17:08:16;;;;;;;3.38;3.08;;;;;;;21.68;52.24;100467.56;10485410;28;21698;-76
2023/09/15 17:13:21;;;;;;;3.60;2.88;;;;;;;21.45;52.72;100465.88;10481451;28;20044;-75
2023/09/15 17:18:24;;;;;;;5.82;3.10;;;;;;;21.17;53.43;100475.84;10485606;28;20518;-75
2023/09/15 17:23:27;;;;;;;3.85;3.17;;;;;;;20.97;54.17;100472.84;10489611;28;20063;-77
2023/09/15 17:28:31;;;;;;;5.63;3.92;;;;;;;20.68;55.56;100468.25;10503581;28;20044;-76
2023/09/15 17:33:34;;;;;;;4.30;3.63;;;;;;;20.46;56.44;100468.16;10490496;28;20048;-75
2023/09/15 17:38:37;;;;;;;6.43;4.50;;;;;;;20.32;56.72;100472.56;10488198;28;20084;-77
2023/09/15 17:43:44;;;;;;;4.38;3.97;;;;;;;20.11;56.98;100475.97;10481745;28;20043;-76
2023/09/15 17:48:52;;;;;;;6.53;4.18;;;;;;;19.95;57.49;100478.84;10477928;28;20463;-76
2023/09/15 17:53:55;;;;;;;4.30;3.90;;;;;;;19.88;57.92;100481.47;10480442;28;21196;-76
2023/09/15 17:58:59;;;;;;;5.03;4.53;;;;;;;19.72;58.12;100478.00;10479095;28;20044;-76
2023/09/15 18:04:02;;;;;;;6.68;3.85;;;;;;;19.60;58.87;100480.31;10485357;28;20048;-76
2023/09/15 18:09:05;;;;;;;8.00;4.47;;;;;;;19.47;59.30;100489.03;10471203;28;20996;-76
2023/09/15 18:14:09;;;;;;;6.65;4.25;;;;;;;19.41;59.67;100484.31;10478088;28;20102;-76
2023/09/15 18:19:12;;;;;;;5.20;4.18;;;;;;;19.29;59.94;100480.31;10479786;28;20152;-74
2023/09/15 18:24:15;;;;;;;5.35;4.30;;;;;;;19.17;60.48;100480.72;10478010;28;20087;-74
2023/09/15 18:29:19;;;;;;;4.82;4.43;;;;;;;19.04;61.15;100485.91;10483137;28;20202;-75
2023/09/15 18:34:22;;;;;;;7.55;4.38;;;;;;;18.96;61.33;100478.63;10479492;28;20052;-74
2023/09/15 18:39:26;;;;;;;6.53;4.35;;;;;;;18.85;61.88;100481.72;10478335;28;20729;-74
2023/09/15 18:44:30;;;;;;;5.10;4.60;;;;;;;18.76;62.20;100486.31;10483908;28;20043;-74
2023/09/15 18:49:33;;;;;;;5.47;4.22;;;;;;;18.69;62.52;100482.59;10484575;28;20802;-74
2023/09/15 18:54:36;;;;;;;5.30;4.78;;;;;;;18.63;62.82;100490.63;10481701;28;20047;-74
2023/09/15 18:59:41;;;;;;;7.50;4.75;;;;;;;18.55;63.00;100486.03;10487277;28;20707;-74
2023/09/15 19:04:43;;;;;;;6.75;5.00;;;;;;;18.39;63.61;100491.53;10484060;28;20048;-74
2023/09/15 19:09:46;;;;;;;7.80;5.47;;;;;;;18.32;63.80;100500.38;10488529;28;20075;-73
2023/09/15 19:14:50;;;;;;;6.53;5.53;;;;;;;18.27;64.08;100491.88;10487754;28;20044;-73
2023/09/15 19:19:53;;;;;;;9.48;5.93;;;;;;;18.15;64.58;100493.25;10476698;28;20052;-75
2023/09/15 19:24:56;;;;;;;7.35;5.75;;;;;;;18.05;64.99;100492.59;10494486;28;20040;-74
2023/09/15 19:30:00;;;;;;;7.47;5.80;;;;;;;18.01;65.20;100483.06;10491309;28;20059;-74
2023/09/15 19:35:04;;;;;;;7.97;5.60;;;;;;;18.05;65.23;100493.44;10471832;28;20094;-75
2023/09/15 19:40:08;;;;;;;6.85;5.82;;;;;;;17.98;65.53;100486.97;10473276;28;20056;-75
2023/09/15 19:45:14;;;;;;;7.05;6.35;;;;;;;17.89;65.89;100482.53;10481111;28;20044;-76
2023/09/15 19:50:19;;;;;;;10.48;5.90;;;;;;;17.87;66.08;100485.41;10487594;28;20699;-76
2023/09/15 19:55:22;;;;;;;6.07;5.47;;;;;;;17.81;66.46;100477.09;10487394;28;20354;-73
2023/09/15 20:00:26;;;;;;;10.35;5.68;;;;;;;17.69;66.78;100479.31;10487957;28;20055;-75
2023/09/15 20:05:29;;;;;;;7.22;5.50;;;;;;;17.67;66.72;100470.47;10485378;28;20058;-75
2023/09/15 20:10:32;;;;;;;7.93;5.60;;;;;;;17.62;67.23;100470.13;10490223;28;20090;-74
2023/09/15 20:15:36;;;;;;;9.00;6.25;;;;;;;17.48;67.68;100474.34;10483743;28;20840;-74
2023/09/15 20:20:40;;;;;;;10.60;6.35;;;;;;;17.50;67.99;100468.72;10485829;28;20499;-74
2023/09/15 20:25:48;;;;;;;8.35;5.82;;;;;;;17.52;67.81;100464.00;10485619;28;20048;-73
2023/09/15 20:30:53;;;;;;;6.15;5.53;;;;;;;17.39;68.07;100475.34;10480104;28;20060;-75
2023/09/15 20:35:57;;;;;;;8.27;6.28;;;;;;;17.32;68.11;100474.31;10492951;28;20051;-74
2023/09/15 20:41:00;;;;;;;9.80;6.85;;;;;;;17.30;68.18;100479.91;10489821;28;20081;-74
2023/09/15 20:46:04;;;;;;;10.60;7.38;;;;;;;17.25;68.48;100479.53;10488847;28;20048;-73
2023/09/15 20:51:07;;;;;;;7.57;6.18;;;;;;;17.20;68.42;100477.34;10485944;28;20040;-73
2023/09/15 20:56:11;;;;;;;6.90;5.90;;;;;;;17.14;68.42;100471.72;10487140;28;20043;-75
2023/09/15 21:01:16;;;;;;;6.82;6.00;;;;;;;16.98;68.69;100467.91;10485265;28;20048;-76
2023/09/15 21:06:19;;;;;;;6.20;5.55;;;;;;;16.80;69.66;100468.00;10483211;28;20573;-76
2023/09/15 21:11:22;;;;;;;7.63;6.40;;;;;;;16.71;70.13;100465.44;10488196;28;20075;-74
2023/09/15 21:16:26;;;;;;;11.30;6.22;;;;;;;16.72;69.95;100457.09;10475282;27;20520;-74
2023/09/15 21:21:51;;;;;;;10.73;6.63;;;;;;;16.65;70.49;100456.09;10481367;28;20053;-75
2023/09/15 21:26:54;;;;;;;10.65;6.50;;;;;;;16.66;70.20;100463.19;10494854;28;20609;-74
2023/09/15 21:31:58;;;;;;;7.35;6.57;;;;;;;16.72;70.06;100458.97;10474501;28;20048;-74
2023/09/15 21:37:01;;;;;;;7.97;6.82;;;;;;;16.61;69.96;100465.53;10481469;28;20978;-75
2023/09/15 21:42:05;;;;;;;6.55;5.88;;;;;;;16.66;70.06;100465.06;10481937;28;20169;-75
2023/09/15 21:47:09;;;;;;;7.20;5.70;;;;;;;16.69;69.94;100473.72;10478572;28;20054;-74
2023/09/15 21:52:12;;;;;;;7.00;5.22;;;;;;;16.75;69.68;100470.34;10484652;28;20071;-73
2023/09/15 21:57:18;;;;;;;6.82;6.13;;;;;;;16.76;69.23;100474.78;10488244;28;20129;-73
2023/09/15 22:02:22;;;;;;;7.60;5.47;;;;;;;16.72;69.56;100475.25;10485507;28;20062;-75
2023/09/15 22:07:25;;;;;;;6.55;5.70;;;;;;;16.67;69.31;100481.16;10480608;28;20484;-76
2023/09/15 22:12:28;;;;;;;6.28;5.65;;;;;;;16.61;69.61;100475.53;10477819;28;20071;-74
2023/09/15 22:17:32;;;;;;;5.93;5.32;;;;;;;16.64;69.41;100476.06;10483080;28;20565;-73
2023/09/15 22:22:36;;;;;;;7.65;5.45;;;;;;;16.66;69.42;100471.31;10481288;28;20787;-74
2023/09/15 22:27:39;;;;;;;7.75;6.00;;;;;;;16.60;69.32;100463.84;10477026;28;20057;-73
2023/09/15 22:32:43;;;;;;;8.48;5.57;;;;;;;16.51;69.64;100459.38;10479945;28;20045;-74
2023/09/15 22:37:46;;;;;;;6.47;5.68;;;;;;;16.43;69.99;100457.50;10481305;28;20056;-74
2023/09/15 22:42:50;;;;;;;7.78;5.63;;;;;;;16.40;69.79;100459.66;10480362;28;20521;-74
2023/09/15 22:47:57;;;;;;;7.10;6.05;;;;;;;16.38;70.02;100459.84;10475069;28;20128;-75
2023/09/15 22:53:01;;;;;;;5.95;5.35;;;;;;;16.41;69.91;100462.22;10472643;28;21234;-75
2023/09/15 22:58:04;;;;;;;6.47;5.85;;;;;;;16.39;69.77;100466.94;10467928;28;20047;-75
2023/09/15 23:03:08;;;;;;;7.35;5.63;;;;;;;16.41;69.93;100454.09;10468929;28;20151;-75
2023/09/15 23:08:11;;;;;;;9.20;5.47;;;;;;;16.29;69.89;100461.66;10468700;28;20044;-74
2023/09/15 23:13:14;;;;;;;6.63;5.93;;;;;;;16.21;70.27;100453.44;10471024;28;20044;-74
2023/09/15 23:18:18;;;;;;;7.45;5.70;;;;;;;16.08;70.48;100448.41;10470692;28;20434;-75